Time;durP1;ratioP1;P1;durP2;ratioP2;P2;SDS_P1;SDS_P2;PMS_P1;PMS_P2;Temp;Humidity;BMP_temperature;BMP_pressure;BME280_temperature;BME280_humidity;BME280_pressure;Samples;Min_cycle;Max_cycle;Signal;HPM_P1;HPM_P2
2023/11/24 00:00:23;;;;;;;10.35;1.67;;;;;;;;;;9172051;19;20491;-72
2023/11/24 00:03:29;;;;;;;8.23;0.82;;;;;;;;;;9170958;19;20022;-71
2023/11/24 00:06:39;;;;;;;2.35;0.80;;;;;;;;;;9170240;19;20010;-72
2023/11/24 00:09:45;;;;;;;7.55;1.10;;;;;;;;;;9172052;19;20015;-72
2023/11/24 00:12:52;;;;;;;6.97;1.17;;;;;;;;;;9172518;19;20029;-72
2023/11/24 00:15:59;;;;;;;13.23;1.95;;;;;;;;;;9171517;19;20582;-72
2023/11/24 00:19:07;;;;;;;7.72;1.10;;;;;;;;;;9173571;19;20022;-72
2023/11/24 00:22:15;;;;;;;7.80;1.45;;;;;;;;;;9173697;19;20114;-72
2023/11/24 00:25:23;;;;;;;12.88;1.23;;;;;;;;;;9173373;19;20022;-72
2023/11/24 00:28:29;;;;;;;8.32;0.90;;;;;;;;;;9173284;19;20087;-72
2023/11/24 00:31:37;;;;;;;4.50;1.10;;;;;;;;;;9171202;19;20687;-72
2023/11/24 00:34:42;;;;;;;9.15;1.33;;;;;;;;;;9170822;19;20539;-72
2023/11/24 00:37:53;;;;;;;8.55;1.17;;;;;;;;;;9172001;19;20018;-72
2023/11/24 00:41:00;;;;;;;5.97;1.40;;;;;;;;;;9173412;19;20006;-71
2023/11/24 00:44:07;;;;;;;5.55;1.13;;;;;;;;;;9166723;19;20018;-72
2023/11/24 00:47:13;;;;;;;8.50;1.90;;;;;;;;;;9171819;19;20355;-74
2023/11/24 00:50:21;;;;;;;6.95;1.35;;;;;;;;;;9173168;19;20014;-72
2023/11/24 00:53:29;;;;;;;10.18;1.75;;;;;;;;;;9172664;19;20452;-69
2023/11/24 00:56:36;;;;;;;8.40;1.00;;;;;;;;;;9169331;19;20014;-69
2023/11/24 00:59:43;;;;;;;13.43;2.35;;;;;;;;;;9175459;19;20043;-68
2023/11/24 01:02:51;;;;;;;12.48;1.77;;;;;;;;;;9177751;19;20018;-71
2023/11/24 01:05:57;;;;;;;8.52;1.70;;;;;;;;;;9179838;19;20033;-68
2023/11/24 01:09:09;;;;;;;7.32;1.20;;;;;;;;;;9179702;19;20411;-69
2023/11/24 01:12:15;;;;;;;10.82;2.33;;;;;;;;;;9179574;19;20702;-68
2023/11/24 01:15:23;;;;;;;12.88;2.00;;;;;;;;;;9178922;19;20090;-71
2023/11/24 01:18:29;;;;;;;15.52;1.73;;;;;;;;;;9181144;19;20384;-69
2023/11/24 01:21:37;;;;;;;9.68;1.50;;;;;;;;;;9182059;19;20026;-69
2023/11/24 01:24:47;;;;;;;14.43;2.47;;;;;;;;;;9181562;19;20029;-68
2023/11/24 01:27:55;;;;;;;9.75;1.70;;;;;;;;;;9180906;19;20018;-69
2023/11/24 01:31:01;;;;;;;8.63;1.45;;;;;;;;;;9176560;19;20056;-70
2023/11/24 01:34:08;;;;;;;10.13;1.35;;;;;;;;;;9180615;19;20022;-68
2023/11/24 01:37:14;;;;;;;8.05;1.48;;;;;;;;;;9175191;19;20027;-70
2023/11/24 01:40:24;;;;;;;7.93;2.40;;;;;;;;;;9180080;19;20450;-69
2023/11/24 01:43:30;;;;;;;9.32;1.38;;;;;;;;;;9175477;19;20052;-71
2023/11/24 01:46:39;;;;;;;9.32;1.35;;;;;;;;;;9179584;19;20021;-69
2023/11/24 01:49:45;;;;;;;9.32;1.40;;;;;;;;;;9179708;19;20018;-71
2023/11/24 01:52:53;;;;;;;17.88;2.28;;;;;;;;;;9177076;19;20021;-70
2023/11/24 01:56:02;;;;;;;6.85;1.55;;;;;;;;;;9175939;19;20542;-69
2023/11/24 01:59:10;;;;;;;19.02;2.33;;;;;;;;;;9177456;19;20018;-69
2023/11/24 02:02:15;;;;;;;12.50;1.33;;;;;;;;;;9178593;19;20010;-70
2023/11/24 02:05:23;;;;;;;7.03;0.98;;;;;;;;;;9178376;19;20025;-70
2023/11/24 02:08:30;;;;;;;6.68;1.77;;;;;;;;;;9178858;19;20188;-70
2023/11/24 02:11:41;;;;;;;9.98;1.98;;;;;;;;;;9178723;19;20594;-69
2023/11/24 02:14:46;;;;;;;9.02;1.77;;;;;;;;;;9178554;19;20055;-76
2023/11/24 02:17:55;;;;;;;15.13;1.42;;;;;;;;;;9176428;19;20022;-70
2023/11/24 02:21:02;;;;;;;16.60;3.08;;;;;;;;;;9176991;19;20014;-70
2023/11/24 02:24:13;;;;;;;10.82;2.35;;;;;;;;;;9176953;19;20013;-69
2023/11/24 02:27:20;;;;;;;10.65;1.80;;;;;;;;;;9172498;19;20024;-69
2023/11/24 02:30:28;;;;;;;6.25;1.50;;;;;;;;;;9177464;19;20022;-70
2023/11/24 02:33:33;;;;;;;9.23;2.00;;;;;;;;;;9174754;19;20380;-70
2023/11/24 02:36:42;;;;;;;16.23;2.10;;;;;;;;;;9174362;19;20368;-69
2023/11/24 02:39:51;;;;;;;14.07;2.30;;;;;;;;;;9176331;19;20078;-69
2023/11/24 02:42:59;;;;;;;10.13;1.35;;;;;;;;;;9174121;19;20766;-70
2023/11/24 02:46:05;;;;;;;9.13;1.75;;;;;;;;;;9176214;19;20487;-69
2023/11/24 02:49:12;;;;;;;5.65;1.65;;;;;;;;;;9178335;19;20034;-69
2023/11/24 02:52:18;;;;;;;13.45;1.88;;;;;;;;;;9176870;19;20006;-70
2023/11/24 02:55:28;;;;;;;17.90;2.20;;;;;;;;;;9178042;19;20022;-70
2023/11/24 02:58:34;;;;;;;16.13;1.80;;;;;;;;;;9177603;19;20385;-68
2023/11/24 03:01:42;;;;;;;10.82;2.10;;;;;;;;;;9176554;19;20022;-72
2023/11/24 03:04:48;;;;;;;22.45;2.33;;;;;;;;;;9176348;19;20106;-68
2023/11/24 03:07:56;;;;;;;14.85;2.08;;;;;;;;;;9177301;19;20029;-69
2023/11/24 03:11:06;;;;;;;14.63;2.60;;;;;;;;;;9176316;19;20094;-69
2023/11/24 03:14:14;;;;;;;14.60;1.80;;;;;;;;;;9175680;19;20018;-71
2023/11/24 03:17:20;;;;;;;15.18;2.63;;;;;;;;;;9171913;19;20053;-71
2023/11/24 03:20:28;;;;;;;10.50;1.92;;;;;;;;;;9175892;19;20015;-72
2023/11/24 03:23:34;;;;;;;13.48;1.65;;;;;;;;;;9169297;19;20014;-73
2023/11/24 03:26:44;;;;;;;20.65;2.33;;;;;;;;;;9175572;19;20015;-73
2023/11/24 03:29:50;;;;;;;13.80;2.15;;;;;;;;;;9175804;19;20022;-72
2023/11/24 03:32:58;;;;;;;9.25;1.85;;;;;;;;;;9174043;19;20018;-72
2023/11/24 03:36:04;;;;;;;11.25;1.77;;;;;;;;;;9175332;19;20497;-72
2023/11/24 03:39:13;;;;;;;11.02;1.73;;;;;;;;;;9174578;19;20026;-71
2023/11/24 03:42:22;;;;;;;7.95;1.67;;;;;;;;;;9176250;19;20898;-72
2023/11/24 03:45:30;;;;;;;6.47;1.13;;;;;;;;;;9171271;19;20014;-72
2023/11/24 03:48:35;;;;;;;7.00;1.10;;;;;;;;;;9175100;19;20106;-71
2023/11/24 03:51:43;;;;;;;11.38;1.30;;;;;;;;;;9174363;19;20022;-72
2023/11/24 03:54:50;;;;;;;24.33;1.88;;;;;;;;;;9175044;19;20170;-73
2023/11/24 03:58:00;;;;;;;10.93;1.90;;;;;;;;;;9169819;19;20037;-73
2023/11/24 04:01:07;;;;;;;18.33;1.60;;;;;;;;;;9171254;19;20027;-72
2023/11/24 04:04:15;;;;;;;14.68;1.70;;;;;;;;;;9167252;19;20021;-72
2023/11/24 04:07:22;;;;;;;9.18;1.33;;;;;;;;;;9169224;19;20010;-72
2023/11/24 04:10:29;;;;;;;17.58;1.83;;;;;;;;;;9170823;19;20026;-72
2023/11/24 04:13:38;;;;;;;8.52;1.35;;;;;;;;;;9172198;19;20021;-74
2023/11/24 04:16:45;;;;;;;13.05;2.03;;;;;;;;;;9173870;19;20720;-74
2023/11/24 04:19:51;;;;;;;12.63;1.92;;;;;;;;;;9171616;19;20015;-72
2023/11/24 04:22:59;;;;;;;13.45;2.00;;;;;;;;;;9172709;19;20033;-72
2023/11/24 04:26:06;;;;;;;13.07;2.00;;;;;;;;;;9174024;19;20077;-72
2023/11/24 04:29:16;;;;;;;8.63;1.85;;;;;;;;;;9171468;19;20010;-73
2023/11/24 04:32:22;;;;;;;18.13;2.17;;;;;;;;;;9173011;19;20399;-73
2023/11/24 04:35:30;;;;;;;13.73;1.55;;;;;;;;;;9171508;19;20361;-72
2023/11/24 04:38:35;;;;;;;14.07;1.40;;;;;;;;;;9171375;19;20044;-73
2023/11/24 04:41:43;;;;;;;14.80;1.60;;;;;;;;;;9171400;19;20018;-73
2023/11/24 04:44:56;;;;;;;9.85;1.13;;;;;;;;;;9168010;19;20098;-73
2023/11/24 04:48:04;;;;;;;7.60;1.15;;;;;;;;;;9172177;19;20015;-72
2023/11/24 04:51:10;;;;;;;9.82;1.23;;;;;;;;;;9172808;19;20018;-72
2023/11/24 04:54:17;;;;;;;6.78;1.35;;;;;;;;;;9172601;19;20031;-72
2023/11/24 04:57:23;;;;;;;5.65;0.98;;;;;;;;;;9171874;19;20383;-71
2023/11/24 05:00:33;;;;;;;9.77;0.98;;;;;;;;;;9172552;19;20018;-73
2023/11/24 05:03:39;;;;;;;18.50;1.92;;;;;;;;;;9168027;19;20021;-72
2023/11/24 05:06:46;;;;;;;12.07;1.48;;;;;;;;;;9171609;19;20018;-71
2023/11/24 05:09:52;;;;;;;9.75;1.25;;;;;;;;;;9172800;19;20063;-72
2023/11/24 05:13:00;;;;;;;9.85;1.50;;;;;;;;;;9170956;19;20487;-72
2023/11/24 05:16:08;;;;;;;9.15;1.10;;;;;;;;;;9169795;19;20015;-72
2023/11/24 05:19:17;;;;;;;12.45;2.15;;;;;;;;;;9169889;19;20026;-71
2023/11/24 05:22:22;;;;;;;11.65;2.20;;;;;;;;;;9171937;19;20015;-72
2023/11/24 05:25:30;;;;;;;8.25;1.67;;;;;;;;;;9169443;19;20022;-71
2023/11/24 05:28:36;;;;;;;9.50;1.27;;;;;;;;;;9171754;19;20066;-71
2023/11/24 05:31:46;;;;;;;7.32;1.75;;;;;;;;;;9169446;19;20753;-72
2023/11/24 05:34:53;;;;;;;7.65;1.08;;;;;;;;;;9169520;19;20019;-73
2023/11/24 05:38:01;;;;;;;4.63;0.93;;;;;;;;;;9169756;19;20019;-72
2023/11/24 05:41:07;;;;;;;6.55;1.45;;;;;;;;;;9170668;19;20006;-72
2023/11/24 05:44:18;;;;;;;4.63;0.88;;;;;;;;;;9165435;19;20018;-72
2023/11/24 05:47:26;;;;;;;3.33;1.00;;;;;;;;;;9177262;19;20483;-73
2023/11/24 05:50:34;;;;;;;9.68;2.05;;;;;;;;;;9181088;19;20026;-74
2023/11/24 05:53:39;;;;;;;7.13;1.00;;;;;;;;;;9179998;19;20010;-75
2023/11/24 05:56:47;;;;;;;8.60;1.50;;;;;;;;;;9179834;19;20019;-74
2023/11/24 05:59:53;;;;;;;7.20;0.80;;;;;;;;;;9179514;19;20013;-74
2023/11/24 06:03:03;;;;;;;4.85;1.13;;;;;;;;;;9174636;19;20662;-73
2023/11/24 06:06:09;;;;;;;11.40;1.45;;;;;;;;;;9180652;19;20014;-74
2023/11/24 06:09:18;;;;;;;8.18;0.90;;;;;;;;;;9176782;19;20072;-74
2023/11/24 06:12:24;;;;;;;5.63;0.90;;;;;;;;;;9175821;19;20022;-72
2023/11/24 06:15:32;;;;;;;4.88;0.98;;;;;;;;;;9178484;19;20014;-72
2023/11/24 06:18:41;;;;;;;4.53;1.67;;;;;;;;;;9176204;19;20487;-72
2023/11/24 06:21:48;;;;;;;7.05;1.95;;;;;;;;;;9177455;19;20022;-73
2023/11/24 06:24:54;;;;;;;6.80;1.98;;;;;;;;;;9176953;19;20014;-73
2023/11/24 06:28:02;;;;;;;8.00;1.10;;;;;;;;;;9176705;19;20023;-72
2023/11/24 06:31:08;;;;;;;8.77;2.10;;;;;;;;;;9177187;19;20375;-73
2023/11/24 06:34:24;;;;;;;9.25;1.30;;;;;;;;;;9178355;19;20551;-74
2023/11/24 06:37:30;;;;;;;11.10;1.85;;;;;;;;;;9177829;19;20040;-74
2023/11/24 06:40:38;;;;;;;15.85;1.60;;;;;;;;;;9178669;19;20023;-73
2023/11/24 06:43:44;;;;;;;6.13;1.73;;;;;;;;;;9172259;19;20042;-72
2023/11/24 06:46:52;;;;;;;5.45;1.35;;;;;;;;;;9178072;19;20029;-72
2023/11/24 06:50:00;;;;;;;6.43;1.08;;;;;;;;;;9176617;19;20015;-74
2023/11/24 06:53:08;;;;;;;10.60;1.27;;;;;;;;;;9176748;19;20010;-72
2023/11/24 06:56:13;;;;;;;7.45;1.58;;;;;;;;;;9176402;19;20094;-71
2023/11/24 06:59:22;;;;;;;13.88;1.38;;;;;;;;;;9172799;19;20015;-72
2023/11/24 07:02:28;;;;;;;10.32;2.40;;;;;;;;;;9173630;19;20106;-74
2023/11/24 07:05:38;;;;;;;2.83;0.93;;;;;;;;;;9173976;19;20011;-72
2023/11/24 07:08:43;;;;;;;8.48;1.60;;;;;;;;;;9172127;19;20089;-72
2023/11/24 07:11:51;;;;;;;5.97;0.95;;;;;;;;;;9170846;19;20014;-72
2023/11/24 07:14:59;;;;;;;9.00;1.65;;;;;;;;;;9176721;19;20082;-72
2023/11/24 07:18:25;;;;;;;4.50;1.25;;;;;;;;;;9169668;19;20026;-72
2023/11/24 07:21:34;;;;;;;3.75;0.70;;;;;;;;;;9177049;19;20018;-71
2023/11/24 07:24:42;;;;;;;12.65;1.20;;;;;;;;;;9176448;19;20018;-72
2023/11/24 07:27:49;;;;;;;8.90;1.27;;;;;;;;;;9176885;19;20015;-73
2023/11/24 07:30:57;;;;;;;4.72;1.10;;;;;;;;;;9174366;19;20007;-71
2023/11/24 07:34:03;;;;;;;3.38;0.80;;;;;;;;;;9175113;19;20007;-72
2023/11/24 07:37:14;;;;;;;3.67;0.73;;;;;;;;;;9175794;19;20022;-72
2023/11/24 07:40:20;;;;;;;12.38;1.85;;;;;;;;;;9173182;19;20015;-72
2023/11/24 07:43:28;;;;;;;8.30;1.35;;;;;;;;;;9171518;19;20021;-72
2023/11/24 07:46:34;;;;;;;5.60;1.75;;;;;;;;;;9175495;19;20056;-72
2023/11/24 07:49:42;;;;;;;8.00;1.15;;;;;;;;;;9175054;19;20011;-72
2023/11/24 07:52:50;;;;;;;10.40;1.23;;;;;;;;;;9175483;19;20014;-72
2023/11/24 07:55:58;;;;;;;5.97;1.17;;;;;;;;;;9175489;19;20015;-72
2023/11/24 07:59:04;;;;;;;11.23;1.75;;;;;;;;;;9173859;19;20016;-73
2023/11/24 08:02:11;;;;;;;8.23;0.88;;;;;;;;;;9172969;19;20033;-73
2023/11/24 08:05:17;;;;;;;2.90;1.15;;;;;;;;;;9172418;19;20134;-73
2023/11/24 08:08:28;;;;;;;4.15;0.77;;;;;;;;;;9172113;19;20022;-72
2023/11/24 08:11:34;;;;;;;4.63;0.55;;;;;;;;;;9173819;19;20015;-74
2023/11/24 08:14:41;;;;;;;6.00;1.40;;;;;;;;;;9171565;19;20030;-73
2023/11/24 08:17:47;;;;;;;2.38;0.80;;;;;;;;;;9173451;19;20011;-73
2023/11/24 08:20:55;;;;;;;8.18;0.90;;;;;;;;;;9171000;19;20018;-73
2023/11/24 08:24:06;;;;;;;5.68;1.05;;;;;;;;;;9173768;19;20047;-73
2023/11/24 08:27:13;;;;;;;4.28;0.50;;;;;;;;;;9171617;19;20018;-73
2023/11/24 08:30:19;;;;;;;8.73;1.00;;;;;;;;;;9172833;19;20018;-71
2023/11/24 08:33:27;;;;;;;8.55;1.45;;;;;;;;;;9171392;19;20042;-73
2023/11/24 08:36:32;;;;;;;6.97;1.17;;;;;;;;;;9173893;19;20117;-73
2023/11/24 08:39:43;;;;;;;6.10;1.30;;;;;;;;;;9171868;19;20058;-72
2023/11/24 08:42:48;;;;;;;4.22;0.82;;;;;;;;;;9168968;19;20018;-73
2023/11/24 08:45:57;;;;;;;9.40;2.50;;;;;;;;;;9172145;19;20019;-73
2023/11/24 08:49:03;;;;;;;3.65;1.48;;;;;;;;;;9170871;19;20022;-75
2023/11/24 08:52:11;;;;;;;6.10;1.02;;;;;;;;;;9172474;19;20492;-73
2023/11/24 08:55:20;;;;;;;2.22;0.68;;;;;;;;;;9171664;19;20014;-73
2023/11/24 08:58:28;;;;;;;7.53;1.23;;;;;;;;;;9171588;19;20021;-72
2023/11/24 09:01:33;;;;;;;5.60;0.90;;;;;;;;;;9172237;19;20018;-72
2023/11/24 09:04:41;;;;;;;1.83;0.80;;;;;;;;;;9167633;19;20376;-72
2023/11/24 09:07:47;;;;;;;3.35;0.80;;;;;;;;;;9172320;19;20020;-71
2023/11/24 09:10:58;;;;;;;3.28;0.88;;;;;;;;;;9169896;19;20010;-72
2023/11/24 09:14:05;;;;;;;2.80;0.60;;;;;;;;;;9170220;19;20360;-71
2023/11/24 09:17:13;;;;;;;6.63;1.17;;;;;;;;;;9170107;19;20014;-71
2023/11/24 09:20:19;;;;;;;4.03;1.10;;;;;;;;;;9172623;19;20122;-72
2023/11/24 09:23:27;;;;;;;6.10;0.95;;;;;;;;;;9180089;19;20022;-71
2023/11/24 09:26:35;;;;;;;1.58;0.55;;;;;;;;;;9180558;19;20010;-72
2023/11/24 09:29:43;;;;;;;4.82;0.73;;;;;;;;;;9176961;19;20026;-72
2023/11/24 09:32:50;;;;;;;5.00;0.55;;;;;;;;;;9180959;19;20014;-71
2023/11/24 09:35:58;;;;;;;4.53;1.00;;;;;;;;;;9180762;19;20015;-72
2023/11/24 09:39:04;;;;;;;5.88;1.95;;;;;;;;;;9179342;19;20019;-72
2023/11/24 09:42:16;;;;;;;2.33;0.75;;;;;;;;;;9180224;19;20010;-71
2023/11/24 09:45:26;;;;;;;6.78;1.02;;;;;;;;;;9174914;19;20021;-72
2023/11/24 09:48:35;;;;;;;2.17;1.00;;;;;;;;;;9177600;19;20023;-73
2023/11/24 09:51:42;;;;;;;8.13;1.20;;;;;;;;;;9173313;19;20106;-72
2023/11/24 09:54:50;;;;;;;8.15;0.90;;;;;;;;;;9174029;19;20019;-72
2023/11/24 09:57:58;;;;;;;3.55;1.08;;;;;;;;;;9174402;19;20022;-74
2023/11/24 10:01:16;;;;;;;5.18;1.65;;;;;;;;;;9172730;19;20011;-72
2023/11/24 10:04:23;;;;;;;1.65;0.65;;;;;;;;;;9172807;19;20422;-72
2023/11/24 10:07:31;;;;;;;3.97;0.90;;;;;;;;;;9176914;19;20017;-71
2023/11/24 10:10:37;;;;;;;11.63;1.40;;;;;;;;;;9179303;19;20015;-72
2023/11/24 10:13:49;;;;;;;7.00;1.02;;;;;;;;;;9178896;19;20022;-72
2023/11/24 10:16:56;;;;;;;9.75;1.10;;;;;;;;;;9178621;19;20067;-71
2023/11/24 10:20:11;;;;;;;5.72;0.95;;;;;;;;;;9177842;19;20018;-71
2023/11/24 10:23:18;;;;;;;8.10;1.27;;;;;;;;;;9179047;19;20461;-71
2023/11/24 10:26:25;;;;;;;7.43;1.40;;;;;;;;;;9178928;19;20025;-73
2023/11/24 10:29:34;;;;;;;14.93;2.28;;;;;;;;;;9177816;19;20023;-72
2023/11/24 10:32:43;;;;;;;10.25;2.42;;;;;;;;;;9173386;19;20018;-71
2023/11/24 10:35:50;;;;;;;8.32;1.92;;;;;;;;;;9175459;19;20019;-73
2023/11/24 10:39:03;;;;;;;13.25;1.80;;;;;;;;;;9177365;19;20022;-71
2023/11/24 10:42:11;;;;;;;11.27;1.75;;;;;;;;;;9175172;19;20046;-71
2023/11/24 10:45:21;;;;;;;7.22;1.17;;;;;;;;;;9172767;19;20018;-70
2023/11/24 10:48:30;;;;;;;9.82;1.65;;;;;;;;;;9177854;19;20646;-73
2023/11/24 10:51:42;;;;;;;11.90;2.85;;;;;;;;;;9173673;19;20848;-69
2023/11/24 10:54:51;;;;;;;11.82;1.73;;;;;;;;;;9175225;19;20408;-71
2023/11/24 10:58:01;;;;;;;13.68;1.95;;;;;;;;;;9177151;19;20021;-71
2023/11/24 11:01:10;;;;;;;20.40;1.80;;;;;;;;;;9174282;19;20022;-70
2023/11/24 11:04:19;;;;;;;15.60;1.52;;;;;;;;;;9174012;19;20014;-71
2023/11/24 11:07:31;;;;;;;5.75;1.38;;;;;;;;;;9176062;19;20011;-71
2023/11/24 11:10:45;;;;;;;9.45;1.58;;;;;;;;;;9175803;19;20037;-70
2023/11/24 11:13:53;;;;;;;15.20;1.65;;;;;;;;;;9175313;19;20026;-72
2023/11/24 11:17:03;;;;;;;15.80;2.63;;;;;;;;;;9174367;19;20448;-73
2023/11/24 11:20:12;;;;;;;21.00;3.08;;;;;;;;;;9174963;19;20037;-71
2023/11/24 11:23:22;;;;;;;16.30;2.97;;;;;;;;;;9177083;19;20018;-72
2023/11/24 11:26:43;;;;;;;6.45;1.60;;;;;;;;;;9166799;19;20022;-73
2023/11/24 11:29:53;;;;;;;16.08;2.08;;;;;;;;;;9156880;19;20433;-72
2023/11/24 11:33:07;;;;;;;14.60;1.88;;;;;;;;;;9166141;19;20018;-74
2023/11/24 11:36:15;;;;;;;16.80;1.55;;;;;;;;;;9174471;19;20543;-72
2023/11/24 11:39:26;;;;;;;18.95;2.35;;;;;;;;;;9173479;19;20090;-73
2023/11/24 11:42:53;;;;;;;10.40;1.83;;;;;;;;;;9169388;19;20018;-72
2023/11/24 11:46:00;;;;;;;9.57;1.77;;;;;;;;;;9174637;19;20074;-72
2023/11/24 11:49:10;;;;;;;13.15;1.55;;;;;;;;;;9171299;19;20360;-72
2023/11/24 11:52:15;;;;;;;15.38;2.45;;;;;;;;;;9173252;19;20041;-74
2023/11/24 11:55:25;;;;;;;13.40;2.25;;;;;;;;;;9175768;19;20026;-72
2023/11/24 11:58:34;;;;;;;14.70;2.47;;;;;;;;;;9173288;19;20010;-75
2023/11/24 12:01:42;;;;;;;12.70;1.65;;;;;;;;;;9170974;19;20018;-73
2023/11/24 12:04:50;;;;;;;16.27;1.60;;;;;;;;;;9166811;19;20052;-75
2023/11/24 12:08:00;;;;;;;13.88;1.80;;;;;;;;;;9171936;19;20018;-76
2023/11/24 12:11:06;;;;;;;8.57;1.60;;;;;;;;;;9173682;19;20019;-73
2023/11/24 12:14:15;;;;;;;8.80;1.42;;;;;;;;;;9173219;19;20011;-73
2023/11/24 12:17:21;;;;;;;6.75;1.58;;;;;;;;;;9171363;19;20380;-74
2023/11/24 12:20:31;;;;;;;5.55;0.73;;;;;;;;;;9172249;19;20021;-73
2023/11/24 12:23:37;;;;;;;3.72;1.00;;;;;;;;;;9170135;19;20022;-74
2023/11/24 12:26:45;;;;;;;7.38;1.23;;;;;;;;;;9167468;19;20018;-75
2023/11/24 12:29:52;;;;;;;8.65;1.23;;;;;;;;;;9172356;19;20052;-73
2023/11/24 12:32:59;;;;;;;13.98;1.58;;;;;;;;;;9172579;19;20045;-73
2023/11/24 12:36:08;;;;;;;4.05;1.20;;;;;;;;;;9171668;19;20031;-73
2023/11/24 12:39:16;;;;;;;4.63;1.30;;;;;;;;;;9168728;19;20348;-73
2023/11/24 12:42:25;;;;;;;5.00;1.30;;;;;;;;;;9168580;19;20018;-73
2023/11/24 12:45:32;;;;;;;11.48;1.65;;;;;;;;;;9164292;19;20019;-73
2023/11/24 12:48:39;;;;;;;7.55;1.55;;;;;;;;;;9172991;19;20474;-73
2023/11/24 12:51:50;;;;;;;6.75;1.90;;;;;;;;;;9171920;19;20018;-72
2023/11/24 12:54:56;;;;;;;13.68;2.13;;;;;;;;;;9170518;19;20039;-73
2023/11/24 12:58:06;;;;;;;10.98;1.95;;;;;;;;;;9172923;19;20010;-74
2023/11/24 13:01:12;;;;;;;16.63;2.53;;;;;;;;;;9171543;19;20015;-73
2023/11/24 13:04:20;;;;;;;7.22;1.73;;;;;;;;;;9168701;19;20674;-73
2023/11/24 13:07:28;;;;;;;8.80;1.88;;;;;;;;;;9170982;19;20017;-72
2023/11/24 13:10:37;;;;;;;11.70;1.98;;;;;;;;;;9172012;19;20025;-72
2023/11/24 13:13:44;;;;;;;7.97;1.13;;;;;;;;;;9169769;19;20018;-73
2023/11/24 13:16:52;;;;;;;11.00;1.27;;;;;;;;;;9171878;19;20015;-73
2023/11/24 13:19:57;;;;;;;6.88;1.55;;;;;;;;;;9169152;19;20022;-73
2023/11/24 13:23:09;;;;;;;5.53;2.28;;;;;;;;;;9169627;19;20022;-73
2023/11/24 13:26:14;;;;;;;5.78;1.23;;;;;;;;;;9172281;19;20048;-72
2023/11/24 13:29:23;;;;;;;9.60;1.55;;;;;;;;;;9171451;19;20023;-72
2023/11/24 13:32:29;;;;;;;5.63;1.40;;;;;;;;;;9162115;19;20028;-73
2023/11/24 13:35:38;;;;;;;11.13;1.30;;;;;;;;;;9167695;19;20029;-72
2023/11/24 13:38:46;;;;;;;6.60;1.45;;;;;;;;;;9170602;19;20030;-72
2023/11/24 13:41:54;;;;;;;13.05;1.75;;;;;;;;;;9169413;19;20114;-72
2023/11/24 13:45:00;;;;;;;12.32;2.38;;;;;;;;;;9166214;19;20011;-72
2023/11/24 13:48:08;;;;;;;14.23;1.58;;;;;;;;;;9163350;19;20022;-73
2023/11/24 13:51:13;;;;;;;6.40;1.20;;;;;;;;;;9169295;19;20018;-71
2023/11/24 13:54:25;;;;;;;7.45;2.13;;;;;;;;;;9165084;19;20786;-73
2023/11/24 13:57:31;;;;;;;20.60;2.35;;;;;;;;;;9168899;19;20022;-71
2023/11/24 14:00:38;;;;;;;10.00;1.42;;;;;;;;;;9167912;19;20022;-72
2023/11/24 14:03:46;;;;;;;8.98;2.08;;;;;;;;;;9167299;19;20014;-73
2023/11/24 14:06:54;;;;;;;11.25;1.70;;;;;;;;;;9172223;19;20022;-72
2023/11/24 14:10:04;;;;;;;15.25;2.15;;;;;;;;;;9177921;19;20021;-72
2023/11/24 14:13:11;;;;;;;9.52;1.25;;;;;;;;;;9179561;19;20021;-72
2023/11/24 14:16:17;;;;;;;7.47;1.40;;;;;;;;;;9177967;19;20014;-74
2023/11/24 14:19:25;;;;;;;7.88;2.08;;;;;;;;;;9176782;19;20018;-72
2023/11/24 14:22:30;;;;;;;12.25;2.03;;;;;;;;;;9177625;19;20661;-73
2023/11/24 14:25:41;;;;;;;9.95;1.27;;;;;;;;;;9177523;19;20344;-73
2023/11/24 14:28:47;;;;;;;7.15;1.10;;;;;;;;;;9177852;19;20014;-74
2023/11/24 14:31:55;;;;;;;4.43;1.13;;;;;;;;;;9177713;19;20034;-72
2023/11/24 14:35:05;;;;;;;2.30;0.98;;;;;;;;;;9178142;19;20159;-73
2023/11/24 14:38:13;;;;;;;6.32;0.90;;;;;;;;;;9175613;19;20042;-74
2023/11/24 14:41:21;;;;;;;2.28;0.75;;;;;;;;;;9176716;19;20350;-73
2023/11/24 14:44:29;;;;;;;3.15;0.60;;;;;;;;;;9170155;19;20618;-74
2023/11/24 14:47:36;;;;;;;7.78;1.23;;;;;;;;;;9176884;19;20098;-74
2023/11/24 14:50:44;;;;;;;8.52;1.20;;;;;;;;;;9178061;19;20375;-73
2023/11/24 14:53:50;;;;;;;8.48;1.80;;;;;;;;;;9177032;19;20021;-70
2023/11/24 14:57:01;;;;;;;7.75;1.42;;;;;;;;;;9177136;19;20010;-69
2023/11/24 15:00:15;;;;;;;4.70;0.90;;;;;;;;;;9177999;19;20405;-68
2023/11/24 15:03:24;;;;;;;4.03;1.20;;;;;;;;;;9175558;19;20018;-70
2023/11/24 15:06:31;;;;;;;5.13;1.05;;;;;;;;;;9177220;19;20014;-69
2023/11/24 15:09:43;;;;;;;7.53;1.20;;;;;;;;;;9177779;19;20708;-69
2023/11/24 15:12:51;;;;;;;5.70;1.55;;;;;;;;;;9177176;19;20376;-71
2023/11/24 15:15:59;;;;;;;10.23;1.23;;;;;;;;;;9176491;19;20015;-68
2023/11/24 15:19:05;;;;;;;8.80;1.27;;;;;;;;;;9175130;19;20018;-70
2023/11/24 15:22:16;;;;;;;3.83;1.02;;;;;;;;;;9174895;19;20017;-70
2023/11/24 15:25:26;;;;;;;8.45;1.25;;;;;;;;;;9177179;19;20025;-69
2023/11/24 15:28:38;;;;;;;5.32;0.95;;;;;;;;;;9177083;19;20014;-69
2023/11/24 15:31:44;;;;;;;10.27;1.60;;;;;;;;;;9176703;19;20488;-69
2023/11/24 15:34:55;;;;;;;7.30;1.20;;;;;;;;;;9172950;19;20022;-69
2023/11/24 15:38:01;;;;;;;2.67;1.20;;;;;;;;;;9174777;19;20082;-69
2023/11/24 15:41:09;;;;;;;5.38;0.98;;;;;;;;;;9174754;19;20018;-70
2023/11/24 15:44:24;;;;;;;9.48;2.10;;;;;;;;;;9167119;19;20011;-70
2023/11/24 15:47:32;;;;;;;10.43;1.60;;;;;;;;;;9169823;19;20011;-69
2023/11/24 15:50:42;;;;;;;6.30;1.10;;;;;;;;;;9171168;19;20018;-71
2023/11/24 15:53:50;;;;;;;10.43;1.83;;;;;;;;;;9169211;19;20018;-69
2023/11/24 15:56:57;;;;;;;12.13;1.50;;;;;;;;;;9171321;19;20015;-69
2023/11/24 16:00:10;;;;;;;5.85;1.70;;;;;;;;;;9175237;19;20371;-69
2023/11/24 16:03:20;;;;;;;13.73;1.80;;;;;;;;;;9173883;19;20071;-69
2023/11/24 16:06:28;;;;;;;14.75;1.90;;;;;;;;;;9174860;19;20029;-71
2023/11/24 16:09:34;;;;;;;12.82;2.40;;;;;;;;;;9173745;19;20014;-69
2023/11/24 16:12:43;;;;;;;11.05;1.65;;;;;;;;;;9171521;19;20026;-69
2023/11/24 16:15:51;;;;;;;12.80;1.63;;;;;;;;;;9172458;19;20110;-69
2023/11/24 16:18:59;;;;;;;14.95;2.05;;;;;;;;;;9173258;19;20119;-72
2023/11/24 16:22:05;;;;;;;11.43;1.67;;;;;;;;;;9172768;19;20486;-70
2023/11/24 16:25:13;;;;;;;13.13;1.85;;;;;;;;;;9171981;19;20010;-71
2023/11/24 16:28:19;;;;;;;20.40;2.25;;;;;;;;;;9173157;19;20014;-69
2023/11/24 16:31:33;;;;;;;8.52;1.98;;;;;;;;;;9172532;19;20492;-71
2023/11/24 16:34:40;;;;;;;11.68;1.88;;;;;;;;;;9171624;19;20475;-69
2023/11/24 16:37:51;;;;;;;12.48;1.75;;;;;;;;;;9168981;19;20011;-70
2023/11/24 16:40:57;;;;;;;13.75;2.65;;;;;;;;;;9172167;19;20110;-71
2023/11/24 16:44:06;;;;;;;16.92;2.40;;;;;;;;;;9167638;19;20014;-69
2023/11/24 16:47:16;;;;;;;18.60;2.67;;;;;;;;;;9171488;19;20389;-71
2023/11/24 16:50:24;;;;;;;14.50;2.30;;;;;;;;;;9171708;19;20034;-69
2023/11/24 16:53:29;;;;;;;23.73;1.90;;;;;;;;;;9170164;19;20015;-69
2023/11/24 16:56:37;;;;;;;17.42;3.28;;;;;;;;;;9171715;19;20110;-69
2023/11/24 16:59:43;;;;;;;11.07;2.25;;;;;;;;;;9172819;19;20014;-69
2023/11/24 17:02:53;;;;;;;16.00;2.20;;;;;;;;;;9171017;19;20025;-70
2023/11/24 17:05:59;;;;;;;7.85;2.00;;;;;;;;;;9169477;19;20584;-71
2023/11/24 17:09:11;;;;;;;21.63;2.28;;;6.00;84.40;;;;;;9171556;19;20014;-69
2023/11/24 17:12:16;;;;;;;16.88;2.42;;;5.80;86.60;;;;;;9173280;19;20025;-70
2023/11/24 17:15:24;;;;;;;19.00;3.10;;;5.60;85.00;;;;;;9172144;19;20380;-72
2023/11/24 17:18:33;;;;;;;22.83;3.58;;;5.60;85.20;;;;;;9169364;19;20026;-72
2023/11/24 17:21:41;;;;;;;15.18;2.13;;;5.60;85.30;;;;;;9171277;19;20014;-72
2023/11/24 17:24:47;;;;;;;12.68;3.70;;;5.70;85.40;;;;;;9168655;19;20006;-73
2023/11/24 17:27:54;;;;;;;16.45;2.03;;;5.60;85.40;;;;;;9170510;19;20015;-72
2023/11/24 17:31:00;;;;;;;13.90;2.20;;;5.60;85.40;;;;;;9170244;19;20059;-72
2023/11/24 17:34:14;;;;;;;12.95;3.03;;;5.60;85.40;;;;;;9170250;19;20010;-71
2023/11/24 17:37:20;;;;;;;12.40;2.95;;;5.60;85.40;;;;;;9168927;19;20010;-71
2023/11/24 17:40:28;;;;;;;9.98;1.65;;;5.60;85.40;;;;;;9170969;19;20598;-71
2023/11/24 17:43:34;;;;;;;20.65;2.28;;;5.60;85.40;;;;;;9175254;19;20020;-71
2023/11/24 17:46:42;;;;;;;16.88;1.75;;;5.60;85.40;;;;;;9180331;19;20025;-70
2023/11/24 17:49:50;;;;;;;14.18;2.50;;;5.60;85.40;;;;;;9180889;19;20625;-70
2023/11/24 17:52:57;;;;;;;10.25;1.70;;;5.60;85.40;;;;;;9177020;19;20018;-71
2023/11/24 17:56:03;;;;;;;10.73;2.10;;;5.60;85.50;;;;;;9179814;19;20015;-70
2023/11/24 17:59:11;;;;;;;10.55;1.80;;;5.60;85.50;;;;;;9180166;19;20281;-71
2023/11/24 18:02:16;;;;;;;17.77;1.92;;;5.60;85.60;;;;;;9177455;19;20026;-73
2023/11/24 18:05:27;;;;;;;10.90;2.17;;;5.60;85.60;;;;;;9176418;19;20145;-71
2023/11/24 18:08:34;;;;;;;2.75;0.80;;;5.60;85.70;;;;;;9180163;19;20011;-72
2023/11/24 18:11:42;;;;;;;10.25;1.58;;;5.60;85.60;;;;;;9179138;19;20015;-69
2023/11/24 18:14:48;;;;;;;2.50;0.82;;;5.50;85.40;;;;;;9179275;19;20010;-71
2023/11/24 18:17:56;;;;;;;6.95;1.52;;;5.40;85.50;;;;;;9178347;19;20029;-72
2023/11/24 18:21:05;;;;;;;3.97;0.95;;;5.30;85.40;;;;;;9177910;19;20022;-71
2023/11/24 18:24:13;;;;;;;4.97;1.23;;;5.30;85.50;;;;;;9175444;19;20113;-69
2023/11/24 18:27:23;;;;;;;4.60;1.63;;;5.20;85.50;;;;;;9177211;19;20014;-68